createdAt,value
2019-03-23T00:00:29.782Z,32.60
2019-03-23T00:10:33.028Z,35.33
2019-03-23T00:20:35.690Z,35.90
2019-03-23T00:30:38.696Z,39.93
2019-03-23T00:40:41.385Z,43.80
2019-03-23T00:50:43.894Z,45.00
2019-03-23T01:00:47.634Z,48.43
2019-03-23T01:10:50.288Z,54.18
2019-03-23T01:20:53.051Z,62.87
2019-03-23T01:30:55.564Z,60.23
2019-03-23T01:40:58.146Z,60.90
2019-03-23T01:51:01.179Z,63.50
2019-03-23T02:01:04.357Z,65.08
2019-03-23T02:21:09.170Z,68.85
2019-03-23T02:31:11.856Z,74.67
2019-03-23T02:41:14.829Z,78.57
2019-03-23T02:51:17.319Z,79.67
2019-03-23T03:01:19.978Z,81.33
2019-03-23T03:11:22.794Z,80.17
2019-03-23T03:21:25.302Z,80.67
2019-03-23T03:31:27.757Z,80.53
2019-03-23T03:41:30.699Z,83.87
2019-03-23T03:51:33.827Z,79.42
2019-03-23T04:11:38.787Z,87.60
2019-03-23T04:31:43.244Z,85.35
2019-03-23T04:41:45.737Z,85.63
2019-03-23T04:51:48.387Z,84.60
2019-03-23T05:01:53.024Z,86.63
2019-03-23T05:11:55.769Z,84.55
2019-03-23T05:21:58.271Z,85.80
2019-03-23T05:32:00.851Z,93.43
2019-03-23T05:42:03.621Z,88.67
2019-03-23T05:52:06.327Z,90.03
2019-03-23T06:02:09.220Z,85.73
2019-03-23T06:12:11.901Z,82.92
2019-03-23T06:22:14.844Z,83.40
2019-03-23T06:32:17.724Z,74.53
2019-03-23T06:42:20.280Z,71.40
2019-03-23T06:52:23.197Z,71.70
2019-03-23T07:02:25.684Z,66.77
2019-03-23T07:12:30.542Z,68.50
2019-03-23T07:22:33.270Z,66.92
2019-03-23T07:32:37.442Z,69.27
2019-03-23T07:42:40.959Z,66.95
2019-03-23T07:52:43.466Z,68.33
2019-03-23T08:02:47.159Z,72.07
2019-03-23T08:12:49.654Z,67.20
2019-03-23T08:22:52.894Z,62.87
2019-03-23T08:32:55.859Z,63.30
2019-03-23T08:42:58.870Z,61.48
2019-03-23T08:53:01.453Z,61.73
2019-03-23T09:03:04.551Z,57.80
2019-03-23T09:23:09.354Z,47.83
2019-03-23T09:43:13.864Z,50.38
2019-03-23T09:53:17.109Z,51.15
2019-03-23T10:03:20.238Z,48.60
2019-03-23T10:13:25.162Z,50.50
2019-03-23T10:23:27.914Z,49.98
2019-03-23T10:33:31.827Z,49.85
2019-03-23T10:43:34.655Z,48.08
2019-03-23T10:53:37.383Z,45.58
2019-03-23T11:03:43.318Z,46.77
2019-03-23T11:13:45.851Z,47.30
2019-03-23T11:23:48.336Z,50.08
2019-03-23T11:33:51.140Z,48.42
2019-03-23T11:53:55.337Z,63.45
2019-03-23T12:03:58.077Z,48.63
2019-03-23T12:14:01.119Z,57.40
2019-03-23T12:24:05.312Z,47.58
2019-03-23T12:34:08.266Z,48.17
2019-03-23T12:44:11.267Z,48.70
2019-03-23T12:54:13.802Z,43.78
2019-03-23T13:04:16.337Z,44.33
2019-03-23T13:14:19.207Z,44.80
2019-03-23T13:24:26.837Z,46.35
2019-03-23T13:34:29.875Z,47.67
2019-03-23T13:44:32.675Z,49.33
2019-03-23T14:04:37.426Z,47.93
2019-03-23T14:14:41.089Z,52.73
2019-03-23T14:24:45.996Z,46.25
2019-03-23T14:34:48.669Z,49.80
2019-03-23T14:54:53.587Z,50.88
2019-03-23T15:14:57.972Z,50.23
2019-03-23T15:25:02.749Z,51.45
2019-03-23T15:35:05.678Z,51.02
2019-03-23T15:45:08.925Z,49.88
2019-03-23T15:55:11.899Z,51.25
2019-03-23T16:05:14.436Z,56.23
2019-03-23T16:15:36.107Z,50.40
2019-03-23T16:25:38.830Z,51.37
2019-03-23T16:35:41.689Z,52.08
2019-03-23T16:45:44.314Z,65.28
2019-03-23T16:55:47.015Z,52.15
2019-03-23T17:05:49.886Z,52.70
2019-03-23T17:15:53.422Z,55.92
2019-03-23T17:25:56.464Z,57.05
2019-03-23T17:46:01.304Z,56.70
2019-03-23T17:56:06.398Z,55.23
2019-03-23T18:06:10.957Z,55.17
2019-03-23T18:16:13.705Z,58.85
2019-03-23T18:26:17.048Z,62.53
2019-03-23T18:36:19.527Z,62.50
2019-03-23T18:46:24.545Z,61.17
2019-03-23T18:56:27.592Z,60.08
2019-03-23T19:06:32.019Z,61.25
2019-03-23T19:16:34.949Z,61.20
2019-03-23T19:26:37.643Z,62.70
2019-03-23T19:36:41.283Z,61.73
2019-03-23T19:46:45.033Z,66.22
2019-03-23T19:56:47.619Z,63.33
2019-03-23T20:06:50.702Z,60.90
2019-03-23T20:26:55.222Z,40.73
2019-03-23T20:36:57.929Z,33.27
2019-03-23T20:47:00.798Z,52.43
2019-03-23T20:57:03.967Z,29.10
2019-03-23T21:17:20.655Z,26.73
2019-03-23T21:27:23.155Z,25.43
2019-03-23T21:37:25.652Z,24.43
2019-03-23T21:47:28.439Z,27.47
2019-03-23T21:57:31.891Z,25.55
2019-03-23T22:07:34.414Z,24.20
2019-03-23T22:17:37.082Z,25.40
2019-03-23T22:27:39.648Z,24.67
2019-03-23T22:37:42.146Z,21.73
2019-03-23T22:47:44.840Z,18.87
2019-03-23T22:57:47.819Z,13.93
2019-03-23T23:17:52.402Z,9.63
2019-03-23T23:27:54.895Z,8.83
2019-03-23T23:37:58.030Z,8.37
2019-03-23T23:48:01.170Z,9.75
2019-03-23T23:58:03.770Z,9.35
